sensor_id;sensor_type;location;lat;lon;timestamp;P1;durP1;ratioP1;P2;durP2;ratioP2
77384;SDS011;66443;49.122;8.346;2023-04-15T00:01:53;5.97;;;4.60;;
77384;SDS011;66443;49.122;8.346;2023-04-15T00:04:18;6.83;;;4.30;;
77384;SDS011;66443;49.122;8.346;2023-04-15T00:06:48;6.70;;;4.23;;
77384;SDS011;66443;49.122;8.346;2023-04-15T00:09:14;7.97;;;3.53;;
77384;SDS011;66443;49.122;8.346;2023-04-15T00:11:39;5.50;;;3.77;;
77384;SDS011;66443;49.122;8.346;2023-04-15T00:14:04;6.37;;;4.10;;
77384;SDS011;66443;49.122;8.346;2023-04-15T00:16:30;4.83;;;3.83;;
77384;SDS011;66443;49.122;8.346;2023-04-15T00:18:55;9.17;;;4.07;;
77384;SDS011;66443;49.122;8.346;2023-04-15T00:21:21;9.40;;;4.17;;
77384;SDS011;66443;49.122;8.346;2023-04-15T00:23:46;6.47;;;3.70;;
77384;SDS011;66443;49.122;8.346;2023-04-15T00:26:16;4.27;;;3.83;;
77384;SDS011;66443;49.122;8.346;2023-04-15T00:28:42;6.47;;;4.50;;
77384;SDS011;66443;49.122;8.346;2023-04-15T00:31:08;5.67;;;4.27;;
77384;SDS011;66443;49.122;8.346;2023-04-15T00:33:33;4.40;;;4.00;;
77384;SDS011;66443;49.122;8.346;2023-04-15T00:36:00;5.27;;;4.43;;
77384;SDS011;66443;49.122;8.346;2023-04-15T00:38:26;4.73;;;4.23;;
77384;SDS011;66443;49.122;8.346;2023-04-15T00:40:52;9.00;;;4.53;;
77384;SDS011;66443;49.122;8.346;2023-04-15T00:43:17;5.10;;;4.30;;
77384;SDS011;66443;49.122;8.346;2023-04-15T00:45:42;4.47;;;4.03;;
77384;SDS011;66443;49.122;8.346;2023-04-15T00:48:07;4.73;;;4.10;;
77384;SDS011;66443;49.122;8.346;2023-04-15T00:50:33;7.57;;;4.63;;
77384;SDS011;66443;49.122;8.346;2023-04-15T00:52:58;5.60;;;4.97;;
77384;SDS011;66443;49.122;8.346;2023-04-15T00:55:24;6.70;;;5.00;;
77384;SDS011;66443;49.122;8.346;2023-04-15T00:57:49;7.70;;;4.60;;
77384;SDS011;66443;49.122;8.346;2023-04-15T01:00:14;5.80;;;4.43;;
77384;SDS011;66443;49.122;8.346;2023-04-15T01:02:40;4.93;;;4.43;;
77384;SDS011;66443;49.122;8.346;2023-04-15T01:05:05;8.57;;;4.17;;
77384;SDS011;66443;49.122;8.346;2023-04-15T01:07:31;4.40;;;4.00;;
77384;SDS011;66443;49.122;8.346;2023-04-15T01:09:57;6.40;;;4.50;;
77384;SDS011;66443;49.122;8.346;2023-04-15T01:12:22;6.53;;;4.40;;
77384;SDS011;66443;49.122;8.346;2023-04-15T01:14:48;7.87;;;4.27;;
77384;SDS011;66443;49.122;8.346;2023-04-15T01:17:13;5.00;;;4.50;;
77384;SDS011;66443;49.122;8.346;2023-04-15T01:19:39;6.93;;;4.87;;
77384;SDS011;66443;49.122;8.346;2023-04-15T01:22:04;5.90;;;4.63;;
77384;SDS011;66443;49.122;8.346;2023-04-15T01:24:30;7.03;;;4.60;;
77384;SDS011;66443;49.122;8.346;2023-04-15T01:26:56;5.83;;;4.50;;
77384;SDS011;66443;49.122;8.346;2023-04-15T01:29:21;5.03;;;4.33;;
77384;SDS011;66443;49.122;8.346;2023-04-15T01:31:50;10.23;;;4.93;;
77384;SDS011;66443;49.122;8.346;2023-04-15T01:34:16;6.70;;;4.60;;
77384;SDS011;66443;49.122;8.346;2023-04-15T01:36:41;8.60;;;4.77;;
77384;SDS011;66443;49.122;8.346;2023-04-15T01:39:06;8.60;;;4.83;;
77384;SDS011;66443;49.122;8.346;2023-04-15T01:41:32;5.93;;;4.93;;
77384;SDS011;66443;49.122;8.346;2023-04-15T01:43:57;5.17;;;4.30;;
77384;SDS011;66443;49.122;8.346;2023-04-15T01:46:22;5.77;;;5.07;;
77384;SDS011;66443;49.122;8.346;2023-04-15T01:48:48;5.37;;;4.50;;
77384;SDS011;66443;49.122;8.346;2023-04-15T01:51:13;6.00;;;4.80;;
77384;SDS011;66443;49.122;8.346;2023-04-15T01:53:38;6.83;;;5.43;;
77384;SDS011;66443;49.122;8.346;2023-04-15T01:56:03;6.07;;;4.80;;
77384;SDS011;66443;49.122;8.346;2023-04-15T01:58:31;6.67;;;5.47;;
77384;SDS011;66443;49.122;8.346;2023-04-15T02:00:56;10.50;;;5.37;;
77384;SDS011;66443;49.122;8.346;2023-04-15T02:03:22;7.73;;;5.07;;
77384;SDS011;66443;49.122;8.346;2023-04-15T02:05:47;8.10;;;5.10;;
77384;SDS011;66443;49.122;8.346;2023-04-15T02:08:13;9.00;;;5.07;;
77384;SDS011;66443;49.122;8.346;2023-04-15T02:10:38;7.40;;;5.17;;
77384;SDS011;66443;49.122;8.346;2023-04-15T02:13:03;7.07;;;4.77;;
77384;SDS011;66443;49.122;8.346;2023-04-15T02:15:28;9.10;;;5.50;;
77384;SDS011;66443;49.122;8.346;2023-04-15T02:17:54;6.50;;;5.03;;
77384;SDS011;66443;49.122;8.346;2023-04-15T02:20:19;7.80;;;5.07;;
77384;SDS011;66443;49.122;8.346;2023-04-15T02:22:45;9.50;;;5.30;;
77384;SDS011;66443;49.122;8.346;2023-04-15T02:25:11;8.00;;;5.20;;
77384;SDS011;66443;49.122;8.346;2023-04-15T02:27:36;7.50;;;4.90;;
77384;SDS011;66443;49.122;8.346;2023-04-15T02:30:01;8.73;;;5.47;;
77384;SDS011;66443;49.122;8.346;2023-04-15T02:32:27;9.07;;;6.10;;
77384;SDS011;66443;49.122;8.346;2023-04-15T02:34:53;7.20;;;5.43;;
77384;SDS011;66443;49.122;8.346;2023-04-15T02:37:18;8.53;;;5.43;;
77384;SDS011;66443;49.122;8.346;2023-04-15T02:39:44;6.70;;;5.70;;
77384;SDS011;66443;49.122;8.346;2023-04-15T02:42:09;6.87;;;5.77;;
77384;SDS011;66443;49.122;8.346;2023-04-15T02:44:35;7.03;;;5.53;;
77384;SDS011;66443;49.122;8.346;2023-04-15T02:47:00;9.53;;;5.70;;
77384;SDS011;66443;49.122;8.346;2023-04-15T02:49:25;7.23;;;5.87;;
77384;SDS011;66443;49.122;8.346;2023-04-15T02:51:53;9.30;;;5.27;;
77384;SDS011;66443;49.122;8.346;2023-04-15T02:54:19;10.40;;;7.10;;
77384;SDS011;66443;49.122;8.346;2023-04-15T02:56:45;9.90;;;6.27;;
77384;SDS011;66443;49.122;8.346;2023-04-15T02:59:11;7.13;;;6.43;;
77384;SDS011;66443;49.122;8.346;2023-04-15T03:01:36;10.83;;;6.30;;
77384;SDS011;66443;49.122;8.346;2023-04-15T03:04:01;6.83;;;6.13;;
77384;SDS011;66443;49.122;8.346;2023-04-15T03:06:26;8.23;;;5.73;;
77384;SDS011;66443;49.122;8.346;2023-04-15T03:08:51;6.87;;;6.17;;
77384;SDS011;66443;49.122;8.346;2023-04-15T03:11:17;9.77;;;7.30;;
77384;SDS011;66443;49.122;8.346;2023-04-15T03:13:42;8.43;;;7.17;;
77384;SDS011;66443;49.122;8.346;2023-04-15T03:16:08;10.17;;;7.63;;
77384;SDS011;66443;49.122;8.346;2023-04-15T03:18:33;8.10;;;7.10;;
77384;SDS011;66443;49.122;8.346;2023-04-15T03:20:58;10.07;;;7.43;;
77384;SDS011;66443;49.122;8.346;2023-04-15T03:23:23;7.50;;;6.80;;
77384;SDS011;66443;49.122;8.346;2023-04-15T03:25:49;13.10;;;9.20;;
77384;SDS011;66443;49.122;8.346;2023-04-15T03:28:14;7.67;;;6.97;;
77384;SDS011;66443;49.122;8.346;2023-04-15T03:30:39;8.97;;;6.23;;
77384;SDS011;66443;49.122;8.346;2023-04-15T03:33:04;7.40;;;5.83;;
77384;SDS011;66443;49.122;8.346;2023-04-15T03:35:30;12.40;;;6.07;;
77384;SDS011;66443;49.122;8.346;2023-04-15T03:37:55;8.47;;;6.67;;
77384;SDS011;66443;49.122;8.346;2023-04-15T03:40:20;9.83;;;6.37;;
77384;SDS011;66443;49.122;8.346;2023-04-15T03:42:45;6.87;;;5.97;;
77384;SDS011;66443;49.122;8.346;2023-04-15T03:45:10;9.90;;;6.07;;
77384;SDS011;66443;49.122;8.346;2023-04-15T03:47:36;7.00;;;6.30;;
77384;SDS011;66443;49.122;8.346;2023-04-15T03:50:01;6.37;;;5.83;;
77384;SDS011;66443;49.122;8.346;2023-04-15T03:52:26;7.50;;;5.97;;
77384;SDS011;66443;49.122;8.346;2023-04-15T03:54:51;10.23;;;5.60;;
77384;SDS011;66443;49.122;8.346;2023-04-15T03:57:16;9.63;;;6.57;;
77384;SDS011;66443;49.122;8.346;2023-04-15T03:59:42;14.93;;;6.73;;
77384;SDS011;66443;49.122;8.346;2023-04-15T04:02:07;6.73;;;6.13;;
77384;SDS011;66443;49.122;8.346;2023-04-15T04:04:33;12.17;;;8.80;;
77384;SDS011;66443;49.122;8.346;2023-04-15T04:06:58;10.37;;;8.27;;
77384;SDS011;66443;49.122;8.346;2023-04-15T04:09:23;8.87;;;7.93;;
77384;SDS011;66443;49.122;8.346;2023-04-15T04:11:48;8.33;;;7.53;;
77384;SDS011;66443;49.122;8.346;2023-04-15T04:14:13;10.23;;;6.90;;
77384;SDS011;66443;49.122;8.346;2023-04-15T04:16:39;7.43;;;6.67;;
77384;SDS011;66443;49.122;8.346;2023-04-15T04:19:04;7.00;;;6.30;;
77384;SDS011;66443;49.122;8.346;2023-04-15T04:21:29;7.47;;;6.57;;
77384;SDS011;66443;49.122;8.346;2023-04-15T04:23:55;13.60;;;7.00;;
77384;SDS011;66443;49.122;8.346;2023-04-15T04:26:20;8.50;;;6.73;;
77384;SDS011;66443;49.122;8.346;2023-04-15T04:28:46;9.50;;;6.83;;
77384;SDS011;66443;49.122;8.346;2023-04-15T04:31:12;9.67;;;7.77;;
77384;SDS011;66443;49.122;8.346;2023-04-15T04:33:37;9.10;;;7.37;;
77384;SDS011;66443;49.122;8.346;2023-04-15T04:36:02;14.20;;;8.00;;
77384;SDS011;66443;49.122;8.346;2023-04-15T04:38:27;10.60;;;8.13;;
77384;SDS011;66443;49.122;8.346;2023-04-15T04:40:53;9.47;;;6.97;;
77384;SDS011;66443;49.122;8.346;2023-04-15T04:43:18;7.83;;;6.63;;
77384;SDS011;66443;49.122;8.346;2023-04-15T04:45:43;12.03;;;7.50;;
77384;SDS011;66443;49.122;8.346;2023-04-15T04:48:08;7.73;;;7.03;;
77384;SDS011;66443;49.122;8.346;2023-04-15T04:50:34;10.83;;;8.37;;
77384;SDS011;66443;49.122;8.346;2023-04-15T04:53:00;13.20;;;7.60;;
77384;SDS011;66443;49.122;8.346;2023-04-15T04:55:25;8.80;;;7.83;;
77384;SDS011;66443;49.122;8.346;2023-04-15T04:57:51;8.47;;;7.40;;
77384;SDS011;66443;49.122;8.346;2023-04-15T05:00:16;10.33;;;7.73;;
77384;SDS011;66443;49.122;8.346;2023-04-15T05:02:41;8.80;;;7.30;;
77384;SDS011;66443;49.122;8.346;2023-04-15T05:05:08;11.33;;;8.47;;
77384;SDS011;66443;49.122;8.346;2023-04-15T05:07:33;10.80;;;8.67;;
77384;SDS011;66443;49.122;8.346;2023-04-15T05:09:58;10.50;;;9.23;;
77384;SDS011;66443;49.122;8.346;2023-04-15T05:12:24;12.07;;;9.37;;
77384;SDS011;66443;49.122;8.346;2023-04-15T05:14:49;14.57;;;10.57;;
77384;SDS011;66443;49.122;8.346;2023-04-15T05:17:14;11.77;;;9.60;;
77384;SDS011;66443;49.122;8.346;2023-04-15T05:19:39;10.73;;;9.10;;
77384;SDS011;66443;49.122;8.346;2023-04-15T05:22:05;8.97;;;7.90;;
77384;SDS011;66443;49.122;8.346;2023-04-15T05:24:30;8.83;;;7.93;;
77384;SDS011;66443;49.122;8.346;2023-04-15T05:26:55;10.17;;;7.90;;
77384;SDS011;66443;49.122;8.346;2023-04-15T05:29:21;8.93;;;8.00;;
77384;SDS011;66443;49.122;8.346;2023-04-15T05:31:46;9.33;;;8.43;;
77384;SDS011;66443;49.122;8.346;2023-04-15T05:34:11;8.83;;;7.93;;
77384;SDS011;66443;49.122;8.346;2023-04-15T05:36:36;10.17;;;8.87;;
77384;SDS011;66443;49.122;8.346;2023-04-15T05:39:01;8.93;;;8.03;;
77384;SDS011;66443;49.122;8.346;2023-04-15T05:41:27;10.80;;;8.30;;
77384;SDS011;66443;49.122;8.346;2023-04-15T05:43:52;13.37;;;9.73;;
77384;SDS011;66443;49.122;8.346;2023-04-15T05:46:17;13.87;;;9.93;;
77384;SDS011;66443;49.122;8.346;2023-04-15T05:48:42;13.43;;;8.67;;
77384;SDS011;66443;49.122;8.346;2023-04-15T05:51:07;8.87;;;8.07;;
77384;SDS011;66443;49.122;8.346;2023-04-15T05:53:33;7.93;;;7.20;;
77384;SDS011;66443;49.122;8.346;2023-04-15T05:55:58;15.00;;;7.63;;
77384;SDS011;66443;49.122;8.346;2023-04-15T05:58:24;11.03;;;7.00;;
77384;SDS011;66443;49.122;8.346;2023-04-15T06:00:49;12.93;;;9.27;;
77384;SDS011;66443;49.122;8.346;2023-04-15T06:03:14;10.53;;;7.77;;
77384;SDS011;66443;49.122;8.346;2023-04-15T06:05:39;11.07;;;9.07;;
77384;SDS011;66443;49.122;8.346;2023-04-15T06:08:05;10.43;;;7.60;;
77384;SDS011;66443;49.122;8.346;2023-04-15T06:10:30;8.07;;;6.97;;
77384;SDS011;66443;49.122;8.346;2023-04-15T06:13:00;7.13;;;6.43;;
77384;SDS011;66443;49.122;8.346;2023-04-15T06:15:25;14.67;;;7.87;;
77384;SDS011;66443;49.122;8.346;2023-04-15T06:17:50;13.37;;;6.70;;
77384;SDS011;66443;49.122;8.346;2023-04-15T06:20:15;8.90;;;7.83;;
77384;SDS011;66443;49.122;8.346;2023-04-15T06:22:42;7.70;;;6.40;;
77384;SDS011;66443;49.122;8.346;2023-04-15T06:25:07;8.57;;;6.63;;
77384;SDS011;66443;49.122;8.346;2023-04-15T06:27:33;9.57;;;7.03;;
77384;SDS011;66443;49.122;8.346;2023-04-15T06:29:58;10.17;;;6.43;;
77384;SDS011;66443;49.122;8.346;2023-04-15T06:32:23;8.97;;;6.87;;
77384;SDS011;66443;49.122;8.346;2023-04-15T06:34:48;11.87;;;7.33;;
77384;SDS011;66443;49.122;8.346;2023-04-15T06:37:13;7.57;;;6.27;;
77384;SDS011;66443;49.122;8.346;2023-04-15T06:39:40;8.30;;;6.47;;
77384;SDS011;66443;49.122;8.346;2023-04-15T06:42:06;7.63;;;6.00;;
77384;SDS011;66443;49.122;8.346;2023-04-15T06:44:31;7.90;;;6.27;;
77384;SDS011;66443;49.122;8.346;2023-04-15T06:46:57;7.57;;;5.80;;
77384;SDS011;66443;49.122;8.346;2023-04-15T06:49:22;10.60;;;6.93;;
77384;SDS011;66443;49.122;8.346;2023-04-15T06:51:47;6.10;;;5.50;;
77384;SDS011;66443;49.122;8.346;2023-04-15T06:54:12;7.70;;;6.97;;
77384;SDS011;66443;49.122;8.346;2023-04-15T06:56:37;7.73;;;6.17;;
77384;SDS011;66443;49.122;8.346;2023-04-15T06:59:03;6.53;;;5.97;;
77384;SDS011;66443;49.122;8.346;2023-04-15T07:01:28;6.27;;;5.60;;
77384;SDS011;66443;49.122;8.346;2023-04-15T07:03:53;8.20;;;6.27;;
77384;SDS011;66443;49.122;8.346;2023-04-15T07:06:18;7.43;;;6.10;;
77384;SDS011;66443;49.122;8.346;2023-04-15T07:08:43;6.87;;;6.17;;
77384;SDS011;66443;49.122;8.346;2023-04-15T07:11:08;10.13;;;7.10;;
77384;SDS011;66443;49.122;8.346;2023-04-15T07:13:34;7.83;;;6.83;;
77384;SDS011;66443;49.122;8.346;2023-04-15T07:15:59;14.13;;;11.50;;
77384;SDS011;66443;49.122;8.346;2023-04-15T07:18:24;9.63;;;8.00;;
77384;SDS011;66443;49.122;8.346;2023-04-15T07:20:50;7.53;;;6.73;;
77384;SDS011;66443;49.122;8.346;2023-04-15T07:23:15;7.53;;;6.83;;
77384;SDS011;66443;49.122;8.346;2023-04-15T07:25:42;7.73;;;6.57;;
77384;SDS011;66443;49.122;8.346;2023-04-15T07:28:07;13.20;;;7.50;;
77384;SDS011;66443;49.122;8.346;2023-04-15T07:30:32;10.53;;;6.77;;
77384;SDS011;66443;49.122;8.346;2023-04-15T07:32:58;9.20;;;6.73;;
77384;SDS011;66443;49.122;8.346;2023-04-15T07:35:23;7.80;;;7.07;;
77384;SDS011;66443;49.122;8.346;2023-04-15T07:37:50;9.67;;;7.03;;
77384;SDS011;66443;49.122;8.346;2023-04-15T07:40:16;15.83;;;10.93;;
77384;SDS011;66443;49.122;8.346;2023-04-15T07:42:41;10.10;;;7.20;;
77384;SDS011;66443;49.122;8.346;2023-04-15T07:45:07;9.77;;;7.90;;
77384;SDS011;66443;49.122;8.346;2023-04-15T07:47:33;7.73;;;6.93;;
77384;SDS011;66443;49.122;8.346;2023-04-15T07:49:58;9.97;;;7.73;;
77384;SDS011;66443;49.122;8.346;2023-04-15T07:52:24;9.20;;;8.30;;
77384;SDS011;66443;49.122;8.346;2023-04-15T07:54:49;9.40;;;8.50;;
77384;SDS011;66443;49.122;8.346;2023-04-15T07:57:15;11.83;;;7.70;;
77384;SDS011;66443;49.122;8.346;2023-04-15T07:59:41;9.17;;;7.60;;
77384;SDS011;66443;49.122;8.346;2023-04-15T08:02:06;8.23;;;7.13;;
77384;SDS011;66443;49.122;8.346;2023-04-15T08:04:32;8.47;;;7.67;;
77384;SDS011;66443;49.122;8.346;2023-04-15T08:06:57;7.87;;;7.13;;
77384;SDS011;66443;49.122;8.346;2023-04-15T08:09:23;9.97;;;8.43;;
77384;SDS011;66443;49.122;8.346;2023-04-15T08:11:48;9.20;;;8.27;;
77384;SDS011;66443;49.122;8.346;2023-04-15T08:14:13;8.60;;;7.80;;
77384;SDS011;66443;49.122;8.346;2023-04-15T08:16:40;8.67;;;7.83;;
77384;SDS011;66443;49.122;8.346;2023-04-15T08:19:05;8.80;;;7.60;;
77384;SDS011;66443;49.122;8.346;2023-04-15T08:21:30;10.47;;;7.70;;
77384;SDS011;66443;49.122;8.346;2023-04-15T08:23:56;8.57;;;7.73;;
77384;SDS011;66443;49.122;8.346;2023-04-15T08:26:21;8.90;;;8.20;;
77384;SDS011;66443;49.122;8.346;2023-04-15T08:28:46;8.97;;;8.07;;
77384;SDS011;66443;49.122;8.346;2023-04-15T08:31:16;9.07;;;8.27;;
77384;SDS011;66443;49.122;8.346;2023-04-15T08:33:41;10.23;;;9.33;;
77384;SDS011;66443;49.122;8.346;2023-04-15T08:36:06;9.67;;;8.77;;
77384;SDS011;66443;49.122;8.346;2023-04-15T08:38:32;9.13;;;8.23;;
77384;SDS011;66443;49.122;8.346;2023-04-15T08:40:58;9.83;;;8.70;;
77384;SDS011;66443;49.122;8.346;2023-04-15T08:43:26;9.40;;;8.43;;
77384;SDS011;66443;49.122;8.346;2023-04-15T08:45:52;8.80;;;7.97;;
77384;SDS011;66443;49.122;8.346;2023-04-15T08:48:18;7.60;;;6.90;;
77384;SDS011;66443;49.122;8.346;2023-04-15T08:50:43;9.30;;;8.17;;
77384;SDS011;66443;49.122;8.346;2023-04-15T08:53:12;12.60;;;8.40;;
77384;SDS011;66443;49.122;8.346;2023-04-15T08:55:42;9.53;;;8.67;;
77384;SDS011;66443;49.122;8.346;2023-04-15T08:58:08;7.53;;;6.73;;
77384;SDS011;66443;49.122;8.346;2023-04-15T09:00:34;8.07;;;7.27;;
77384;SDS011;66443;49.122;8.346;2023-04-15T09:02:59;9.97;;;7.73;;
77384;SDS011;66443;49.122;8.346;2023-04-15T09:05:25;8.30;;;7.60;;
77384;SDS011;66443;49.122;8.346;2023-04-15T09:07:51;9.17;;;7.20;;
77384;SDS011;66443;49.122;8.346;2023-04-15T09:10:16;9.03;;;7.50;;
77384;SDS011;66443;49.122;8.346;2023-04-15T09:12:41;8.87;;;7.93;;
77384;SDS011;66443;49.122;8.346;2023-04-15T09:15:07;9.13;;;8.10;;
77384;SDS011;66443;49.122;8.346;2023-04-15T09:17:36;8.90;;;7.97;;
77384;SDS011;66443;49.122;8.346;2023-04-15T09:20:12;9.73;;;6.67;;
77384;SDS011;66443;49.122;8.346;2023-04-15T09:22:39;8.33;;;7.60;;
77384;SDS011;66443;49.122;8.346;2023-04-15T09:27:46;8.07;;;7.20;;
77384;SDS011;66443;49.122;8.346;2023-04-15T09:30:11;8.50;;;6.60;;
77384;SDS011;66443;49.122;8.346;2023-04-15T09:32:37;7.40;;;6.27;;
77384;SDS011;66443;49.122;8.346;2023-04-15T09:35:11;8.07;;;7.07;;
77384;SDS011;66443;49.122;8.346;2023-04-15T09:37:37;7.60;;;6.90;;
77384;SDS011;66443;49.122;8.346;2023-04-15T09:40:02;7.70;;;5.93;;
77384;SDS011;66443;49.122;8.346;2023-04-15T09:42:27;11.63;;;7.20;;
77384;SDS011;66443;49.122;8.346;2023-04-15T09:44:53;7.93;;;6.37;;
77384;SDS011;66443;49.122;8.346;2023-04-15T09:47:28;7.60;;;6.20;;
77384;SDS011;66443;49.122;8.346;2023-04-15T09:49:57;9.37;;;7.40;;
77384;SDS011;66443;49.122;8.346;2023-04-15T09:52:22;6.70;;;6.10;;
77384;SDS011;66443;49.122;8.346;2023-04-15T09:54:47;6.93;;;6.33;;
77384;SDS011;66443;49.122;8.346;2023-04-15T09:57:12;7.40;;;6.70;;
77384;SDS011;66443;49.122;8.346;2023-04-15T09:59:38;10.30;;;7.20;;
77384;SDS011;66443;49.122;8.346;2023-04-15T10:02:03;6.67;;;6.07;;
77384;SDS011;66443;49.122;8.346;2023-04-15T10:04:29;7.17;;;6.50;;
77384;SDS011;66443;49.122;8.346;2023-04-15T10:06:56;7.43;;;6.73;;
77384;SDS011;66443;49.122;8.346;2023-04-15T10:09:22;7.50;;;6.70;;
77384;SDS011;66443;49.122;8.346;2023-04-15T10:11:47;7.33;;;6.67;;
77384;SDS011;66443;49.122;8.346;2023-04-15T10:14:13;8.90;;;6.10;;
77384;SDS011;66443;49.122;8.346;2023-04-15T10:16:40;7.30;;;5.97;;
77384;SDS011;66443;49.122;8.346;2023-04-15T10:19:07;6.43;;;5.73;;
77384;SDS011;66443;49.122;8.346;2023-04-15T10:21:33;5.97;;;5.27;;
77384;SDS011;66443;49.122;8.346;2023-04-15T10:23:58;7.40;;;5.83;;
77384;SDS011;66443;49.122;8.346;2023-04-15T10:26:25;6.20;;;5.60;;
77384;SDS011;66443;49.122;8.346;2023-04-15T10:28:51;5.10;;;4.37;;
77384;SDS011;66443;49.122;8.346;2023-04-15T10:31:17;5.30;;;4.83;;
77384;SDS011;66443;49.122;8.346;2023-04-15T10:33:43;5.80;;;4.57;;
77384;SDS011;66443;49.122;8.346;2023-04-15T10:36:09;4.50;;;4.10;;
77384;SDS011;66443;49.122;8.346;2023-04-15T10:38:42;4.80;;;3.00;;
77384;SDS011;66443;49.122;8.346;2023-04-15T10:43:36;2.33;;;1.93;;
77384;SDS011;66443;49.122;8.346;2023-04-15T10:46:03;4.03;;;2.10;;
77384;SDS011;66443;49.122;8.346;2023-04-15T10:48:29;3.10;;;2.73;;
77384;SDS011;66443;49.122;8.346;2023-04-15T10:50:55;3.27;;;2.77;;
77384;SDS011;66443;49.122;8.346;2023-04-15T10:53:26;3.67;;;2.60;;
77384;SDS011;66443;49.122;8.346;2023-04-15T10:55:52;4.10;;;2.30;;
77384;SDS011;66443;49.122;8.346;2023-04-15T10:58:17;4.43;;;2.83;;
77384;SDS011;66443;49.122;8.346;2023-04-15T11:00:43;4.20;;;2.60;;
77384;SDS011;66443;49.122;8.346;2023-04-15T11:03:13;4.60;;;3.30;;
77384;SDS011;66443;49.122;8.346;2023-04-15T11:05:49;2.60;;;2.40;;
77384;SDS011;66443;49.122;8.346;2023-04-15T11:08:14;2.87;;;2.50;;
77384;SDS011;66443;49.122;8.346;2023-04-15T11:15:34;2.83;;;2.63;;
77384;SDS011;66443;49.122;8.346;2023-04-15T11:18:10;4.63;;;3.00;;
77384;SDS011;66443;49.122;8.346;2023-04-15T11:20:37;3.10;;;2.80;;
77384;SDS011;66443;49.122;8.346;2023-04-15T11:23:02;4.70;;;3.00;;
77384;SDS011;66443;49.122;8.346;2023-04-15T11:25:28;3.73;;;3.10;;
77384;SDS011;66443;49.122;8.346;2023-04-15T11:27:54;3.60;;;2.80;;
77384;SDS011;66443;49.122;8.346;2023-04-15T11:30:20;2.63;;;2.43;;
77384;SDS011;66443;49.122;8.346;2023-04-15T11:32:47;3.70;;;3.13;;
77384;SDS011;66443;49.122;8.346;2023-04-15T11:35:12;3.57;;;2.87;;
77384;SDS011;66443;49.122;8.346;2023-04-15T11:37:37;3.20;;;2.77;;
77384;SDS011;66443;49.122;8.346;2023-04-15T11:40:03;3.37;;;2.60;;
77384;SDS011;66443;49.122;8.346;2023-04-15T11:42:28;3.90;;;2.77;;
77384;SDS011;66443;49.122;8.346;2023-04-15T11:45:06;6.27;;;3.30;;
77384;SDS011;66443;49.122;8.346;2023-04-15T11:47:33;4.03;;;2.80;;
77384;SDS011;66443;49.122;8.346;2023-04-15T11:50:12;3.40;;;3.00;;
77384;SDS011;66443;49.122;8.346;2023-04-15T11:52:37;4.00;;;3.40;;
77384;SDS011;66443;49.122;8.346;2023-04-15T11:55:03;3.63;;;3.33;;
77384;SDS011;66443;49.122;8.346;2023-04-15T11:57:31;4.20;;;3.80;;
77384;SDS011;66443;49.122;8.346;2023-04-15T11:59:56;4.47;;;3.87;;
77384;SDS011;66443;49.122;8.346;2023-04-15T12:02:29;4.50;;;4.10;;
77384;SDS011;66443;49.122;8.346;2023-04-15T12:05:01;4.80;;;4.13;;
77384;SDS011;66443;49.122;8.346;2023-04-15T12:07:27;4.23;;;3.40;;
77384;SDS011;66443;49.122;8.346;2023-04-15T12:09:56;9.97;;;4.90;;
77384;SDS011;66443;49.122;8.346;2023-04-15T12:12:25;4.60;;;4.20;;
77384;SDS011;66443;49.122;8.346;2023-04-15T12:14:51;13.03;;;4.90;;
77384;SDS011;66443;49.122;8.346;2023-04-15T12:17:16;5.07;;;4.50;;
77384;SDS011;66443;49.122;8.346;2023-04-15T12:19:42;4.07;;;3.77;;
77384;SDS011;66443;49.122;8.346;2023-04-15T12:22:10;4.80;;;4.40;;
77384;SDS011;66443;49.122;8.346;2023-04-15T12:24:35;4.20;;;3.80;;
77384;SDS011;66443;49.122;8.346;2023-04-15T12:27:02;3.60;;;3.30;;
77384;SDS011;66443;49.122;8.346;2023-04-15T12:29:28;3.90;;;2.90;;
77384;SDS011;66443;49.122;8.346;2023-04-15T12:31:55;3.30;;;3.00;;
77384;SDS011;66443;49.122;8.346;2023-04-15T12:36:52;3.90;;;2.93;;
77384;SDS011;66443;49.122;8.346;2023-04-15T12:39:17;3.43;;;3.13;;
77384;SDS011;66443;49.122;8.346;2023-04-15T12:41:45;3.50;;;2.63;;
77384;SDS011;66443;49.122;8.346;2023-04-15T12:44:10;4.17;;;2.90;;
77384;SDS011;66443;49.122;8.346;2023-04-15T12:46:36;3.97;;;3.30;;
77384;SDS011;66443;49.122;8.346;2023-04-15T12:49:02;3.03;;;2.73;;
77384;SDS011;66443;49.122;8.346;2023-04-15T12:51:27;4.87;;;3.07;;
77384;SDS011;66443;49.122;8.346;2023-04-15T12:53:52;2.90;;;2.70;;
77384;SDS011;66443;49.122;8.346;2023-04-15T12:56:18;3.60;;;2.90;;
77384;SDS011;66443;49.122;8.346;2023-04-15T12:58:43;7.90;;;3.20;;
77384;SDS011;66443;49.122;8.346;2023-04-15T13:01:09;3.40;;;3.10;;
77384;SDS011;66443;49.122;8.346;2023-04-15T13:03:34;2.97;;;2.67;;
77384;SDS011;66443;49.122;8.346;2023-04-15T13:06:00;3.63;;;3.20;;
77384;SDS011;66443;49.122;8.346;2023-04-15T13:08:26;3.33;;;3.03;;
77384;SDS011;66443;49.122;8.346;2023-04-15T13:10:51;3.43;;;2.77;;
77384;SDS011;66443;49.122;8.346;2023-04-15T13:13:16;4.60;;;4.20;;
77384;SDS011;66443;49.122;8.346;2023-04-15T13:15:41;4.38;;;3.67;;
77384;SDS011;66443;49.122;8.346;2023-04-15T13:18:09;3.17;;;2.87;;
77384;SDS011;66443;49.122;8.346;2023-04-15T13:20:34;3.77;;;3.37;;
77384;SDS011;66443;49.122;8.346;2023-04-15T13:23:00;5.80;;;3.20;;
77384;SDS011;66443;49.122;8.346;2023-04-15T13:25:25;3.67;;;3.37;;
77384;SDS011;66443;49.122;8.346;2023-04-15T13:27:51;3.00;;;2.80;;
77384;SDS011;66443;49.122;8.346;2023-04-15T13:30:16;3.37;;;3.17;;
77384;SDS011;66443;49.122;8.346;2023-04-15T13:32:41;3.57;;;3.20;;
77384;SDS011;66443;49.122;8.346;2023-04-15T13:35:07;3.50;;;3.20;;
77384;SDS011;66443;49.122;8.346;2023-04-15T13:37:32;6.17;;;4.80;;
77384;SDS011;66443;49.122;8.346;2023-04-15T13:39:57;8.00;;;4.87;;
77384;SDS011;66443;49.122;8.346;2023-04-15T13:42:22;10.37;;;6.30;;
77384;SDS011;66443;49.122;8.346;2023-04-15T13:44:51;4.00;;;3.60;;
77384;SDS011;66443;49.122;8.346;2023-04-15T13:47:16;3.90;;;3.37;;
77384;SDS011;66443;49.122;8.346;2023-04-15T13:49:42;4.37;;;3.97;;
77384;SDS011;66443;49.122;8.346;2023-04-15T13:52:08;7.17;;;4.80;;
77384;SDS011;66443;49.122;8.346;2023-04-15T13:54:33;5.10;;;3.80;;
77384;SDS011;66443;49.122;8.346;2023-04-15T13:56:58;3.50;;;3.20;;
77384;SDS011;66443;49.122;8.346;2023-04-15T13:59:23;5.10;;;3.57;;
77384;SDS011;66443;49.122;8.346;2023-04-15T14:01:48;3.30;;;3.00;;
77384;SDS011;66443;49.122;8.346;2023-04-15T14:04:14;4.07;;;2.67;;
77384;SDS011;66443;49.122;8.346;2023-04-15T14:06:39;3.30;;;2.93;;
77384;SDS011;66443;49.122;8.346;2023-04-15T14:09:04;2.80;;;2.50;;
77384;SDS011;66443;49.122;8.346;2023-04-15T14:11:29;3.40;;;3.10;;
77384;SDS011;66443;49.122;8.346;2023-04-15T14:13:55;2.47;;;2.27;;
77384;SDS011;66443;49.122;8.346;2023-04-15T14:16:20;3.33;;;3.03;;
77384;SDS011;66443;49.122;8.346;2023-04-15T14:18:45;3.90;;;2.20;;
77384;SDS011;66443;49.122;8.346;2023-04-15T14:21:10;3.00;;;2.10;;
77384;SDS011;66443;49.122;8.346;2023-04-15T14:23:35;2.40;;;2.00;;
77384;SDS011;66443;49.122;8.346;2023-04-15T14:26:01;2.27;;;2.07;;
77384;SDS011;66443;49.122;8.346;2023-04-15T14:28:26;3.47;;;3.17;;
77384;SDS011;66443;49.122;8.346;2023-04-15T14:30:51;2.63;;;2.43;;
77384;SDS011;66443;49.122;8.346;2023-04-15T14:33:17;4.53;;;3.47;;
77384;SDS011;66443;49.122;8.346;2023-04-15T14:35:42;4.10;;;3.40;;
77384;SDS011;66443;49.122;8.346;2023-04-15T14:38:07;2.40;;;2.20;;
77384;SDS011;66443;49.122;8.346;2023-04-15T14:40:34;3.33;;;2.40;;
77384;SDS011;66443;49.122;8.346;2023-04-15T14:43:00;1.97;;;1.80;;
77384;SDS011;66443;49.122;8.346;2023-04-15T14:45:25;2.60;;;2.40;;
77384;SDS011;66443;49.122;8.346;2023-04-15T14:47:50;1.63;;;1.40;;
77384;SDS011;66443;49.122;8.346;2023-04-15T14:50:17;1.70;;;1.47;;